sensor_id;sensor_type;location;lat;lon;timestamp;temperature;humidity
46490;DHT22;32204;49.160;8.580;2024-01-30T00:01:15;3.30;99.90
46490;DHT22;32204;49.160;8.580;2024-01-30T00:03:41;3.30;99.90
46490;DHT22;32204;49.160;8.580;2024-01-30T00:06:07;3.40;99.90
46490;DHT22;32204;49.160;8.580;2024-01-30T00:08:33;3.40;99.90
46490;DHT22;32204;49.160;8.580;2024-01-30T00:10:59;3.40;99.90
46490;DHT22;32204;49.160;8.580;2024-01-30T00:13:24;3.40;99.90
46490;DHT22;32204;49.160;8.580;2024-01-30T00:15:50;3.40;99.90
46490;DHT22;32204;49.160;8.580;2024-01-30T00:18:16;3.40;99.90
46490;DHT22;32204;49.160;8.580;2024-01-30T00:20:41;3.50;99.90
46490;DHT22;32204;49.160;8.580;2024-01-30T00:23:08;3.50;1.00
46490;DHT22;32204;49.160;8.580;2024-01-30T00:25:34;3.60;1.00
46490;DHT22;32204;49.160;8.580;2024-01-30T00:28:00;3.60;1.00
46490;DHT22;32204;49.160;8.580;2024-01-30T00:30:25;3.60;1.00
46490;DHT22;32204;49.160;8.580;2024-01-30T00:32:54;3.50;99.90
46490;DHT22;32204;49.160;8.580;2024-01-30T00:35:20;3.60;1.00
46490;DHT22;32204;49.160;8.580;2024-01-30T00:37:47;3.60;1.00
46490;DHT22;32204;49.160;8.580;2024-01-30T00:40:13;3.50;99.90
46490;DHT22;32204;49.160;8.580;2024-01-30T00:42:42;3.40;99.90
46490;DHT22;32204;49.160;8.580;2024-01-30T00:45:15;3.50;1.00
46490;DHT22;32204;49.160;8.580;2024-01-30T00:47:42;3.50;1.00
46490;DHT22;32204;49.160;8.580;2024-01-30T00:50:07;3.50;99.90
46490;DHT22;32204;49.160;8.580;2024-01-30T00:52:33;3.60;99.90
46490;DHT22;32204;49.160;8.580;2024-01-30T00:54:59;3.50;1.00
46490;DHT22;32204;49.160;8.580;2024-01-30T00:57:25;3.50;99.90
46490;DHT22;32204;49.160;8.580;2024-01-30T00:59:51;3.50;99.90
46490;DHT22;32204;49.160;8.580;2024-01-30T01:02:16;3.50;45.40
46490;DHT22;32204;49.160;8.580;2024-01-30T01:04:45;3.40;1.00
46490;DHT22;32204;49.160;8.580;2024-01-30T01:07:11;3.50;99.90
46490;DHT22;32204;49.160;8.580;2024-01-30T01:09:37;3.40;1.00
46490;DHT22;32204;49.160;8.580;2024-01-30T01:12:03;3.30;1.00
46490;DHT22;32204;49.160;8.580;2024-01-30T01:14:29;3.30;99.90
46490;DHT22;32204;49.160;8.580;2024-01-30T01:16:55;3.10;1.00
46490;DHT22;32204;49.160;8.580;2024-01-30T01:19:20;3.00;99.90
46490;DHT22;32204;49.160;8.580;2024-01-30T01:21:46;3.00;99.90
46490;DHT22;32204;49.160;8.580;2024-01-30T01:24:12;3.10;99.90
46490;DHT22;32204;49.160;8.580;2024-01-30T01:26:37;3.20;99.90
46490;DHT22;32204;49.160;8.580;2024-01-30T01:29:06;3.20;99.90
46490;DHT22;32204;49.160;8.580;2024-01-30T01:31:37;3.20;99.90
46490;DHT22;32204;49.160;8.580;2024-01-30T01:34:09;3.20;99.90
46490;DHT22;32204;49.160;8.580;2024-01-30T01:36:35;3.20;99.90
46490;DHT22;32204;49.160;8.580;2024-01-30T01:39:01;2.90;99.90
46490;DHT22;32204;49.160;8.580;2024-01-30T01:41:32;2.70;99.90
46490;DHT22;32204;49.160;8.580;2024-01-30T01:43:59;2.50;1.00
46490;DHT22;32204;49.160;8.580;2024-01-30T01:46:29;2.50;1.00
46490;DHT22;32204;49.160;8.580;2024-01-30T01:48:56;2.50;54.80
46490;DHT22;32204;49.160;8.580;2024-01-30T01:51:23;2.60;99.90
46490;DHT22;32204;49.160;8.580;2024-01-30T01:53:49;2.70;40.90
46490;DHT22;32204;49.160;8.580;2024-01-30T01:56:16;2.80;1.00
46490;DHT22;32204;49.160;8.580;2024-01-30T01:58:42;2.90;1.00
46490;DHT22;32204;49.160;8.580;2024-01-30T02:01:09;3.00;99.90
46490;DHT22;32204;49.160;8.580;2024-01-30T02:03:36;3.00;99.90
46490;DHT22;32204;49.160;8.580;2024-01-30T02:06:03;3.00;58.90
46490;DHT22;32204;49.160;8.580;2024-01-30T02:08:29;3.00;1.00
46490;DHT22;32204;49.160;8.580;2024-01-30T02:10:55;3.00;1.00
46490;DHT22;32204;49.160;8.580;2024-01-30T02:13:21;2.90;99.90
46490;DHT22;32204;49.160;8.580;2024-01-30T02:15:51;2.80;1.00
46490;DHT22;32204;49.160;8.580;2024-01-30T02:18:17;2.90;93.80
46490;DHT22;32204;49.160;8.580;2024-01-30T02:20:43;2.90;1.00
46490;DHT22;32204;49.160;8.580;2024-01-30T02:23:10;3.00;17.70
46490;DHT22;32204;49.160;8.580;2024-01-30T02:25:39;3.00;3.60
46490;DHT22;32204;49.160;8.580;2024-01-30T02:28:15;3.10;1.00
46490;DHT22;32204;49.160;8.580;2024-01-30T02:30:44;2.90;1.00
46490;DHT22;32204;49.160;8.580;2024-01-30T02:33:10;2.90;46.80
46490;DHT22;32204;49.160;8.580;2024-01-30T02:35:35;2.90;1.00
46490;DHT22;32204;49.160;8.580;2024-01-30T02:38:01;3.00;15.90
46490;DHT22;32204;49.160;8.580;2024-01-30T02:40:27;3.00;1.00
46490;DHT22;32204;49.160;8.580;2024-01-30T02:42:52;2.90;1.00
46490;DHT22;32204;49.160;8.580;2024-01-30T02:45:18;2.90;1.00
46490;DHT22;32204;49.160;8.580;2024-01-30T02:47:44;2.80;99.90
46490;DHT22;32204;49.160;8.580;2024-01-30T02:50:10;2.70;1.00
46490;DHT22;32204;49.160;8.580;2024-01-30T02:52:35;2.80;53.70
46490;DHT22;32204;49.160;8.580;2024-01-30T02:55:01;2.70;29.90
46490;DHT22;32204;49.160;8.580;2024-01-30T02:57:28;2.80;99.90
46490;DHT22;32204;49.160;8.580;2024-01-30T02:59:53;2.80;99.90
46490;DHT22;32204;49.160;8.580;2024-01-30T03:02:19;2.90;51.70
46490;DHT22;32204;49.160;8.580;2024-01-30T03:04:45;2.90;1.00
46490;DHT22;32204;49.160;8.580;2024-01-30T03:07:11;2.80;1.00
46490;DHT22;32204;49.160;8.580;2024-01-30T03:09:37;2.80;1.00
46490;DHT22;32204;49.160;8.580;2024-01-30T03:12:03;2.70;1.00
46490;DHT22;32204;49.160;8.580;2024-01-30T03:14:31;2.70;1.00
46490;DHT22;32204;49.160;8.580;2024-01-30T03:16:57;2.60;99.90
46490;DHT22;32204;49.160;8.580;2024-01-30T03:19:23;2.60;1.00
46490;DHT22;32204;49.160;8.580;2024-01-30T03:21:48;2.60;1.00
46490;DHT22;32204;49.160;8.580;2024-01-30T03:24:14;2.60;1.00
46490;DHT22;32204;49.160;8.580;2024-01-30T03:26:40;2.60;1.00
46490;DHT22;32204;49.160;8.580;2024-01-30T03:29:05;2.60;1.00
46490;DHT22;32204;49.160;8.580;2024-01-30T03:31:31;2.70;1.00
46490;DHT22;32204;49.160;8.580;2024-01-30T03:33:56;2.70;1.00
46490;DHT22;32204;49.160;8.580;2024-01-30T03:36:22;2.60;99.90
46490;DHT22;32204;49.160;8.580;2024-01-30T03:38:47;2.70;99.90
46490;DHT22;32204;49.160;8.580;2024-01-30T03:41:13;2.60;99.90
46490;DHT22;32204;49.160;8.580;2024-01-30T03:43:39;2.70;99.90
46490;DHT22;32204;49.160;8.580;2024-01-30T03:46:04;2.70;1.00
46490;DHT22;32204;49.160;8.580;2024-01-30T03:48:30;2.60;99.90
46490;DHT22;32204;49.160;8.580;2024-01-30T03:50:55;2.40;1.00
46490;DHT22;32204;49.160;8.580;2024-01-30T03:53:21;2.30;99.90
46490;DHT22;32204;49.160;8.580;2024-01-30T03:55:47;2.30;99.90
46490;DHT22;32204;49.160;8.580;2024-01-30T03:58:13;2.20;99.90
46490;DHT22;32204;49.160;8.580;2024-01-30T04:00:38;2.30;1.00
46490;DHT22;32204;49.160;8.580;2024-01-30T04:03:04;2.40;1.00
46490;DHT22;32204;49.160;8.580;2024-01-30T04:05:30;2.40;1.00
46490;DHT22;32204;49.160;8.580;2024-01-30T04:07:56;2.40;1.00
46490;DHT22;32204;49.160;8.580;2024-01-30T04:10:21;2.30;1.00
46490;DHT22;32204;49.160;8.580;2024-01-30T04:12:47;2.20;1.00
46490;DHT22;32204;49.160;8.580;2024-01-30T04:15:13;2.20;63.50
46490;DHT22;32204;49.160;8.580;2024-01-30T04:17:39;2.10;99.90
46490;DHT22;32204;49.160;8.580;2024-01-30T04:20:05;2.10;99.90
46490;DHT22;32204;49.160;8.580;2024-01-30T04:22:31;2.00;99.90
46490;DHT22;32204;49.160;8.580;2024-01-30T04:24:57;2.10;99.90
46490;DHT22;32204;49.160;8.580;2024-01-30T04:27:22;2.10;99.90
46490;DHT22;32204;49.160;8.580;2024-01-30T04:29:48;2.10;1.00
46490;DHT22;32204;49.160;8.580;2024-01-30T04:32:14;2.10;1.00
46490;DHT22;32204;49.160;8.580;2024-01-30T04:34:39;2.20;1.00
46490;DHT22;32204;49.160;8.580;2024-01-30T04:37:05;2.20;99.90
46490;DHT22;32204;49.160;8.580;2024-01-30T04:39:32;2.20;99.90
46490;DHT22;32204;49.160;8.580;2024-01-30T04:41:58;2.30;99.90
46490;DHT22;32204;49.160;8.580;2024-01-30T04:44:24;2.40;99.90
46490;DHT22;32204;49.160;8.580;2024-01-30T04:46:50;2.50;99.90
46490;DHT22;32204;49.160;8.580;2024-01-30T04:49:15;2.60;1.00
46490;DHT22;32204;49.160;8.580;2024-01-30T04:51:41;2.60;1.00
46490;DHT22;32204;49.160;8.580;2024-01-30T04:54:07;2.50;99.90
46490;DHT22;32204;49.160;8.580;2024-01-30T04:56:32;2.40;99.90
46490;DHT22;32204;49.160;8.580;2024-01-30T04:58:58;2.40;1.00
46490;DHT22;32204;49.160;8.580;2024-01-30T05:01:23;2.40;1.00
46490;DHT22;32204;49.160;8.580;2024-01-30T05:03:49;2.30;1.00
46490;DHT22;32204;49.160;8.580;2024-01-30T05:06:26;2.30;99.90
46490;DHT22;32204;49.160;8.580;2024-01-30T05:08:52;2.20;56.60
46490;DHT22;32204;49.160;8.580;2024-01-30T05:11:18;2.20;90.70
46490;DHT22;32204;49.160;8.580;2024-01-30T05:13:44;2.20;81.30
46490;DHT22;32204;49.160;8.580;2024-01-30T05:16:09;2.30;48.30
46490;DHT22;32204;49.160;8.580;2024-01-30T05:18:35;2.20;1.00
46490;DHT22;32204;49.160;8.580;2024-01-30T05:21:02;2.20;99.90
46490;DHT22;32204;49.160;8.580;2024-01-30T05:23:28;2.10;99.90
46490;DHT22;32204;49.160;8.580;2024-01-30T05:25:53;2.10;99.90
46490;DHT22;32204;49.160;8.580;2024-01-30T05:28:19;2.10;99.90
46490;DHT22;32204;49.160;8.580;2024-01-30T05:30:44;2.10;99.90
46490;DHT22;32204;49.160;8.580;2024-01-30T05:33:10;2.20;99.90
46490;DHT22;32204;49.160;8.580;2024-01-30T05:35:37;2.20;99.90
46490;DHT22;32204;49.160;8.580;2024-01-30T05:38:03;2.30;99.90
46490;DHT22;32204;49.160;8.580;2024-01-30T05:40:29;2.30;99.90
46490;DHT22;32204;49.160;8.580;2024-01-30T05:42:55;2.20;99.90
46490;DHT22;32204;49.160;8.580;2024-01-30T05:45:21;2.30;99.90
46490;DHT22;32204;49.160;8.580;2024-01-30T05:47:48;2.30;99.90
46490;DHT22;32204;49.160;8.580;2024-01-30T05:50:14;2.40;99.90
46490;DHT22;32204;49.160;8.580;2024-01-30T05:52:40;2.40;77.00
46490;DHT22;32204;49.160;8.580;2024-01-30T05:55:06;2.40;55.40
46490;DHT22;32204;49.160;8.580;2024-01-30T05:57:32;2.40;1.00
46490;DHT22;32204;49.160;8.580;2024-01-30T05:59:57;2.50;1.00
46490;DHT22;32204;49.160;8.580;2024-01-30T06:02:23;2.50;39.90
46490;DHT22;32204;49.160;8.580;2024-01-30T06:04:49;2.50;1.00
46490;DHT22;32204;49.160;8.580;2024-01-30T06:07:14;2.50;1.00
46490;DHT22;32204;49.160;8.580;2024-01-30T06:09:40;2.40;99.90
46490;DHT22;32204;49.160;8.580;2024-01-30T06:12:06;2.40;99.90
46490;DHT22;32204;49.160;8.580;2024-01-30T06:14:32;2.30;99.90
46490;DHT22;32204;49.160;8.580;2024-01-30T06:16:59;2.40;99.90
46490;DHT22;32204;49.160;8.580;2024-01-30T06:19:24;2.30;99.90
46490;DHT22;32204;49.160;8.580;2024-01-30T06:21:50;2.20;1.00
46490;DHT22;32204;49.160;8.580;2024-01-30T06:24:16;2.20;99.90
46490;DHT22;32204;49.160;8.580;2024-01-30T06:26:41;2.20;99.90
46490;DHT22;32204;49.160;8.580;2024-01-30T06:29:07;2.30;99.90
46490;DHT22;32204;49.160;8.580;2024-01-30T06:31:33;2.30;99.90
46490;DHT22;32204;49.160;8.580;2024-01-30T06:33:58;2.30;23.80
46490;DHT22;32204;49.160;8.580;2024-01-30T06:36:24;2.30;1.00
46490;DHT22;32204;49.160;8.580;2024-01-30T06:38:50;2.30;29.40
46490;DHT22;32204;49.160;8.580;2024-01-30T06:41:15;2.50;88.90
46490;DHT22;32204;49.160;8.580;2024-01-30T06:43:41;2.50;25.40
46490;DHT22;32204;49.160;8.580;2024-01-30T06:46:06;2.40;1.00
46490;DHT22;32204;49.160;8.580;2024-01-30T06:48:32;2.20;99.90
46490;DHT22;32204;49.160;8.580;2024-01-30T06:50:58;2.10;1.00
46490;DHT22;32204;49.160;8.580;2024-01-30T06:53:23;2.00;1.00
46490;DHT22;32204;49.160;8.580;2024-01-30T06:55:51;2.00;1.00
46490;DHT22;32204;49.160;8.580;2024-01-30T06:58:23;2.00;1.00
46490;DHT22;32204;49.160;8.580;2024-01-30T07:00:49;2.10;13.40
46490;DHT22;32204;49.160;8.580;2024-01-30T07:03:16;2.20;1.00
46490;DHT22;32204;49.160;8.580;2024-01-30T07:05:42;2.10;1.00
46490;DHT22;32204;49.160;8.580;2024-01-30T07:08:11;2.20;1.00
46490;DHT22;32204;49.160;8.580;2024-01-30T07:10:36;2.30;1.00
46490;DHT22;32204;49.160;8.580;2024-01-30T07:13:02;2.30;1.00
46490;DHT22;32204;49.160;8.580;2024-01-30T07:15:29;2.30;1.00
46490;DHT22;32204;49.160;8.580;2024-01-30T07:17:55;2.40;1.00
46490;DHT22;32204;49.160;8.580;2024-01-30T07:20:20;2.60;1.00
46490;DHT22;32204;49.160;8.580;2024-01-30T07:22:46;2.50;99.90
46490;DHT22;32204;49.160;8.580;2024-01-30T07:25:12;2.60;1.00
46490;DHT22;32204;49.160;8.580;2024-01-30T07:27:38;2.70;1.00
46490;DHT22;32204;49.160;8.580;2024-01-30T07:30:04;2.60;99.90
46490;DHT22;32204;49.160;8.580;2024-01-30T07:32:30;2.60;99.90
46490;DHT22;32204;49.160;8.580;2024-01-30T07:34:57;2.60;99.90
46490;DHT22;32204;49.160;8.580;2024-01-30T07:37:22;2.50;60.40
46490;DHT22;32204;49.160;8.580;2024-01-30T07:39:48;2.50;1.00
46490;DHT22;32204;49.160;8.580;2024-01-30T07:42:14;2.60;99.90
46490;DHT22;32204;49.160;8.580;2024-01-30T07:44:39;2.60;99.90
46490;DHT22;32204;49.160;8.580;2024-01-30T07:47:05;2.70;99.90
46490;DHT22;32204;49.160;8.580;2024-01-30T07:49:31;2.80;1.00
46490;DHT22;32204;49.160;8.580;2024-01-30T07:51:57;2.90;1.00
46490;DHT22;32204;49.160;8.580;2024-01-30T07:54:23;2.90;1.00
46490;DHT22;32204;49.160;8.580;2024-01-30T07:56:49;3.00;53.00
46490;DHT22;32204;49.160;8.580;2024-01-30T07:59:14;3.00;1.00
46490;DHT22;32204;49.160;8.580;2024-01-30T08:01:40;3.10;99.90
46490;DHT22;32204;49.160;8.580;2024-01-30T08:04:06;3.10;99.90
46490;DHT22;32204;49.160;8.580;2024-01-30T08:06:32;3.00;65.90
46490;DHT22;32204;49.160;8.580;2024-01-30T08:08:58;3.10;99.90
46490;DHT22;32204;49.160;8.580;2024-01-30T08:11:24;3.10;99.90
46490;DHT22;32204;49.160;8.580;2024-01-30T08:13:52;3.20;99.90
46490;DHT22;32204;49.160;8.580;2024-01-30T08:16:18;3.20;99.90
46490;DHT22;32204;49.160;8.580;2024-01-30T08:18:43;3.40;99.90
46490;DHT22;32204;49.160;8.580;2024-01-30T08:21:09;3.50;99.90
46490;DHT22;32204;49.160;8.580;2024-01-30T08:23:35;3.70;99.90
46490;DHT22;32204;49.160;8.580;2024-01-30T08:26:01;3.80;99.90
46490;DHT22;32204;49.160;8.580;2024-01-30T08:28:26;3.90;99.90
46490;DHT22;32204;49.160;8.580;2024-01-30T08:30:52;4.00;99.90
46490;DHT22;32204;49.160;8.580;2024-01-30T08:33:18;4.10;1.00
46490;DHT22;32204;49.160;8.580;2024-01-30T08:35:44;4.00;99.90
46490;DHT22;32204;49.160;8.580;2024-01-30T08:38:09;3.90;43.80
46490;DHT22;32204;49.160;8.580;2024-01-30T08:40:35;3.80;99.90
46490;DHT22;32204;49.160;8.580;2024-01-30T08:43:01;3.60;99.90
46490;DHT22;32204;49.160;8.580;2024-01-30T08:45:26;3.70;99.90
46490;DHT22;32204;49.160;8.580;2024-01-30T08:47:52;3.60;1.00
46490;DHT22;32204;49.160;8.580;2024-01-30T08:50:17;3.70;1.00
46490;DHT22;32204;49.160;8.580;2024-01-30T08:52:43;3.70;1.00
46490;DHT22;32204;49.160;8.580;2024-01-30T08:55:09;3.80;1.00
46490;DHT22;32204;49.160;8.580;2024-01-30T08:57:34;3.80;1.00
46490;DHT22;32204;49.160;8.580;2024-01-30T09:00:00;3.90;1.00
46490;DHT22;32204;49.160;8.580;2024-01-30T09:02:29;3.90;1.00
46490;DHT22;32204;49.160;8.580;2024-01-30T09:04:55;4.00;1.00
46490;DHT22;32204;49.160;8.580;2024-01-30T09:07:21;4.00;1.00
46490;DHT22;32204;49.160;8.580;2024-01-30T09:09:48;4.00;1.00
46490;DHT22;32204;49.160;8.580;2024-01-30T09:12:14;4.10;1.00
46490;DHT22;32204;49.160;8.580;2024-01-30T09:14:40;4.20;1.00
46490;DHT22;32204;49.160;8.580;2024-01-30T09:17:06;4.30;1.00
46490;DHT22;32204;49.160;8.580;2024-01-30T09:19:32;4.30;1.00
46490;DHT22;32204;49.160;8.580;2024-01-30T09:21:58;4.40;1.00
46490;DHT22;32204;49.160;8.580;2024-01-30T09:24:24;4.50;1.00
46490;DHT22;32204;49.160;8.580;2024-01-30T09:26:50;4.50;1.00
46490;DHT22;32204;49.160;8.580;2024-01-30T09:29:15;4.60;1.00
46490;DHT22;32204;49.160;8.580;2024-01-30T09:31:45;4.70;99.90
46490;DHT22;32204;49.160;8.580;2024-01-30T09:34:11;4.70;99.90
46490;DHT22;32204;49.160;8.580;2024-01-30T09:36:36;4.80;99.90
46490;DHT22;32204;49.160;8.580;2024-01-30T09:39:02;4.80;99.90
46490;DHT22;32204;49.160;8.580;2024-01-30T09:41:29;4.90;99.90
46490;DHT22;32204;49.160;8.580;2024-01-30T09:43:57;5.10;99.90
46490;DHT22;32204;49.160;8.580;2024-01-30T09:46:28;5.20;99.90
46490;DHT22;32204;49.160;8.580;2024-01-30T09:48:55;5.30;49.60
46490;DHT22;32204;49.160;8.580;2024-01-30T09:51:23;5.30;1.00
46490;DHT22;32204;49.160;8.580;2024-01-30T09:53:49;5.40;1.00
46490;DHT22;32204;49.160;8.580;2024-01-30T09:56:16;5.50;99.90
46490;DHT22;32204;49.160;8.580;2024-01-30T09:58:42;5.70;39.40
46490;DHT22;32204;49.160;8.580;2024-01-30T10:01:08;5.80;1.00
46490;DHT22;32204;49.160;8.580;2024-01-30T10:03:33;5.80;99.90
46490;DHT22;32204;49.160;8.580;2024-01-30T10:05:59;5.90;1.00
46490;DHT22;32204;49.160;8.580;2024-01-30T10:08:26;6.10;99.90
46490;DHT22;32204;49.160;8.580;2024-01-30T10:10:52;6.10;99.90
46490;DHT22;32204;49.160;8.580;2024-01-30T10:13:18;6.10;1.00
46490;DHT22;32204;49.160;8.580;2024-01-30T10:15:44;6.30;99.90
46490;DHT22;32204;49.160;8.580;2024-01-30T10:18:10;6.30;1.20
46490;DHT22;32204;49.160;8.580;2024-01-30T10:20:37;6.40;99.90
46490;DHT22;32204;49.160;8.580;2024-01-30T10:23:03;6.50;99.90
46490;DHT22;32204;49.160;8.580;2024-01-30T10:25:30;6.60;99.90
46490;DHT22;32204;49.160;8.580;2024-01-30T10:27:57;6.60;1.00
46490;DHT22;32204;49.160;8.580;2024-01-30T10:30:24;6.70;99.90
46490;DHT22;32204;49.160;8.580;2024-01-30T10:32:50;6.70;1.00
46490;DHT22;32204;49.160;8.580;2024-01-30T10:35:17;6.70;87.50
46490;DHT22;32204;49.160;8.580;2024-01-30T10:37:47;6.80;99.90
46490;DHT22;32204;49.160;8.580;2024-01-30T10:40:14;6.90;99.90
46490;DHT22;32204;49.160;8.580;2024-01-30T10:42:43;7.00;1.00
46490;DHT22;32204;49.160;8.580;2024-01-30T10:45:10;7.10;1.00
46490;DHT22;32204;49.160;8.580;2024-01-30T10:47:40;7.10;99.90
46490;DHT22;32204;49.160;8.580;2024-01-30T10:50:08;7.20;99.90
46490;DHT22;32204;49.160;8.580;2024-01-30T10:52:34;7.20;99.90
46490;DHT22;32204;49.160;8.580;2024-01-30T10:55:00;7.20;1.00
46490;DHT22;32204;49.160;8.580;2024-01-30T10:57:27;7.30;99.90
46490;DHT22;32204;49.160;8.580;2024-01-30T10:59:56;7.40;1.00
46490;DHT22;32204;49.160;8.580;2024-01-30T11:02:23;7.40;1.00
46490;DHT22;32204;49.160;8.580;2024-01-30T11:04:49;7.40;99.90
46490;DHT22;32204;49.160;8.580;2024-01-30T11:07:23;7.60;99.90
46490;DHT22;32204;49.160;8.580;2024-01-30T11:09:59;7.60;1.00
46490;DHT22;32204;49.160;8.580;2024-01-30T11:12:30;7.70;74.80
46490;DHT22;32204;49.160;8.580;2024-01-30T11:15:10;7.90;1.00
46490;DHT22;32204;49.160;8.580;2024-01-30T11:17:43;7.90;99.90
46490;DHT22;32204;49.160;8.580;2024-01-30T11:20:21;8.10;1.00
46490;DHT22;32204;49.160;8.580;2024-01-30T11:22:47;8.30;99.90
46490;DHT22;32204;49.160;8.580;2024-01-30T11:25:19;8.40;1.00
46490;DHT22;32204;49.160;8.580;2024-01-30T11:27:46;8.50;99.90
46490;DHT22;32204;49.160;8.580;2024-01-30T11:30:29;8.50;7.60
46490;DHT22;32204;49.160;8.580;2024-01-30T11:33:05;8.60;26.80
46490;DHT22;32204;49.160;8.580;2024-01-30T11:35:38;8.80;96.40
46490;DHT22;32204;49.160;8.580;2024-01-30T11:38:14;8.90;1.00
46490;DHT22;32204;49.160;8.580;2024-01-30T11:40:40;9.00;1.00
46490;DHT22;32204;49.160;8.580;2024-01-30T11:43:07;9.10;99.90
46490;DHT22;32204;49.160;8.580;2024-01-30T11:45:35;9.20;99.90
46490;DHT22;32204;49.160;8.580;2024-01-30T11:48:01;9.20;99.90
46490;DHT22;32204;49.160;8.580;2024-01-30T11:50:30;9.30;99.90
46490;DHT22;32204;49.160;8.580;2024-01-30T11:52:56;9.50;99.90
46490;DHT22;32204;49.160;8.580;2024-01-30T11:55:24;9.40;1.00
46490;DHT22;32204;49.160;8.580;2024-01-30T11:57:50;9.40;27.00
46490;DHT22;32204;49.160;8.580;2024-01-30T12:00:17;9.50;64.50
46490;DHT22;32204;49.160;8.580;2024-01-30T12:02:44;9.50;99.90
46490;DHT22;32204;49.160;8.580;2024-01-30T12:05:10;9.50;1.00
46490;DHT22;32204;49.160;8.580;2024-01-30T12:07:36;9.60;1.00
46490;DHT22;32204;49.160;8.580;2024-01-30T12:10:02;9.60;1.00
46490;DHT22;32204;49.160;8.580;2024-01-30T12:12:28;9.70;1.00
46490;DHT22;32204;49.160;8.580;2024-01-30T12:14:55;9.70;1.00
46490;DHT22;32204;49.160;8.580;2024-01-30T12:17:34;9.80;1.00
46490;DHT22;32204;49.160;8.580;2024-01-30T12:20:07;9.90;1.00
46490;DHT22;32204;49.160;8.580;2024-01-30T12:22:43;10.00;1.00
46490;DHT22;32204;49.160;8.580;2024-01-30T12:25:16;10.10;1.00
46490;DHT22;32204;49.160;8.580;2024-01-30T12:27:43;10.20;99.90
46490;DHT22;32204;49.160;8.580;2024-01-30T12:30:11;10.20;99.90
46490;DHT22;32204;49.160;8.580;2024-01-30T12:32:40;10.20;1.00
46490;DHT22;32204;49.160;8.580;2024-01-30T12:35:10;10.20;99.90
46490;DHT22;32204;49.160;8.580;2024-01-30T12:37:37;10.40;99.90
46490;DHT22;32204;49.160;8.580;2024-01-30T12:40:03;10.40;99.90
46490;DHT22;32204;49.160;8.580;2024-01-30T12:42:29;10.40;99.90
46490;DHT22;32204;49.160;8.580;2024-01-30T12:44:57;10.50;99.90
46490;DHT22;32204;49.160;8.580;2024-01-30T12:47:23;10.60;99.90
46490;DHT22;32204;49.160;8.580;2024-01-30T12:49:48;10.70;99.90
46490;DHT22;32204;49.160;8.580;2024-01-30T12:52:16;10.80;99.90
46490;DHT22;32204;49.160;8.580;2024-01-30T12:54:41;10.80;99.90
46490;DHT22;32204;49.160;8.580;2024-01-30T12:57:07;10.90;99.90
46490;DHT22;32204;49.160;8.580;2024-01-30T12:59:33;10.90;99.90
46490;DHT22;32204;49.160;8.580;2024-01-30T13:02:01;11.00;99.90
46490;DHT22;32204;49.160;8.580;2024-01-30T13:04:27;11.00;99.90
46490;DHT22;32204;49.160;8.580;2024-01-30T13:06:55;11.00;99.90
46490;DHT22;32204;49.160;8.580;2024-01-30T13:09:23;10.90;99.90
46490;DHT22;32204;49.160;8.580;2024-01-30T13:11:49;11.00;99.90
46490;DHT22;32204;49.160;8.580;2024-01-30T13:14:16;11.00;99.90
46490;DHT22;32204;49.160;8.580;2024-01-30T13:16:42;11.00;29.00
46490;DHT22;32204;49.160;8.580;2024-01-30T13:19:08;11.10;1.00
46490;DHT22;32204;49.160;8.580;2024-01-30T13:21:33;11.10;1.00
46490;DHT22;32204;49.160;8.580;2024-01-30T13:23:59;11.10;99.90
46490;DHT22;32204;49.160;8.580;2024-01-30T13:26:25;11.10;1.00
46490;DHT22;32204;49.160;8.580;2024-01-30T13:28:51;11.10;97.40
46490;DHT22;32204;49.160;8.580;2024-01-30T13:31:17;11.10;29.40
46490;DHT22;32204;49.160;8.580;2024-01-30T13:33:43;11.10;41.50
46490;DHT22;32204;49.160;8.580;2024-01-30T13:36:10;11.20;99.90
46490;DHT22;32204;49.160;8.580;2024-01-30T13:38:36;11.10;99.90
46490;DHT22;32204;49.160;8.580;2024-01-30T13:41:02;11.20;92.50
46490;DHT22;32204;49.160;8.580;2024-01-30T13:43:28;11.20;99.90
46490;DHT22;32204;49.160;8.580;2024-01-30T13:45:54;11.10;94.40
46490;DHT22;32204;49.160;8.580;2024-01-30T13:48:19;11.20;99.90
46490;DHT22;32204;49.160;8.580;2024-01-30T13:50:45;11.10;99.90
46490;DHT22;32204;49.160;8.580;2024-01-30T13:53:11;11.00;99.90
46490;DHT22;32204;49.160;8.580;2024-01-30T13:55:37;11.00;99.90
46490;DHT22;32204;49.160;8.580;2024-01-30T13:58:03;11.00;99.90
46490;DHT22;32204;49.160;8.580;2024-01-30T14:00:29;11.00;99.90
46490;DHT22;32204;49.160;8.580;2024-01-30T14:02:54;11.00;99.90
46490;DHT22;32204;49.160;8.580;2024-01-30T14:05:21;11.00;99.90
46490;DHT22;32204;49.160;8.580;2024-01-30T14:07:47;11.00;99.90
46490;DHT22;32204;49.160;8.580;2024-01-30T14:10:13;11.00;99.90
46490;DHT22;32204;49.160;8.580;2024-01-30T14:12:39;11.00;99.90
46490;DHT22;32204;49.160;8.580;2024-01-30T14:15:05;11.00;99.90
46490;DHT22;32204;49.160;8.580;2024-01-30T14:17:30;11.00;99.90
46490;DHT22;32204;49.160;8.580;2024-01-30T14:19:56;11.00;99.90
46490;DHT22;32204;49.160;8.580;2024-01-30T14:22:22;11.00;99.90
46490;DHT22;32204;49.160;8.580;2024-01-30T14:24:47;11.00;99.90
46490;DHT22;32204;49.160;8.580;2024-01-30T14:27:13;11.00;99.90
46490;DHT22;32204;49.160;8.580;2024-01-30T14:29:39;10.90;99.90
46490;DHT22;32204;49.160;8.580;2024-01-30T14:32:05;10.90;99.90
46490;DHT22;32204;49.160;8.580;2024-01-30T14:34:30;10.90;99.90
46490;DHT22;32204;49.160;8.580;2024-01-30T14:36:56;10.90;99.90
46490;DHT22;32204;49.160;8.580;2024-01-30T14:39:22;10.90;99.90
46490;DHT22;32204;49.160;8.580;2024-01-30T14:41:47;10.90;99.90
46490;DHT22;32204;49.160;8.580;2024-01-30T14:44:13;10.90;99.90
46490;DHT22;32204;49.160;8.580;2024-01-30T14:46:39;10.90;99.90
46490;DHT22;32204;49.160;8.580;2024-01-30T14:49:05;10.90;99.90
46490;DHT22;32204;49.160;8.580;2024-01-30T14:51:33;10.90;1.00
46490;DHT22;32204;49.160;8.580;2024-01-30T14:53:59;10.80;1.00
46490;DHT22;32204;49.160;8.580;2024-01-30T14:56:25;10.80;1.00
46490;DHT22;32204;49.160;8.580;2024-01-30T14:58:51;10.80;1.00
46490;DHT22;32204;49.160;8.580;2024-01-30T15:01:16;10.80;1.00
46490;DHT22;32204;49.160;8.580;2024-01-30T15:03:42;10.90;1.00
46490;DHT22;32204;49.160;8.580;2024-01-30T15:06:09;10.80;1.00
46490;DHT22;32204;49.160;8.580;2024-01-30T15:08:34;10.80;1.00
46490;DHT22;32204;49.160;8.580;2024-01-30T15:11:00;10.70;1.00
46490;DHT22;32204;49.160;8.580;2024-01-30T15:13:26;10.80;1.00
46490;DHT22;32204;49.160;8.580;2024-01-30T15:15:51;10.80;1.00
46490;DHT22;32204;49.160;8.580;2024-01-30T15:18:17;10.80;1.00
46490;DHT22;32204;49.160;8.580;2024-01-30T15:20:43;10.80;1.00
46490;DHT22;32204;49.160;8.580;2024-01-30T15:23:08;10.80;1.00
46490;DHT22;32204;49.160;8.580;2024-01-30T15:25:34;10.70;22.60
46490;DHT22;32204;49.160;8.580;2024-01-30T15:28:00;10.70;21.20
46490;DHT22;32204;49.160;8.580;2024-01-30T15:30:25;10.70;99.90
46490;DHT22;32204;49.160;8.580;2024-01-30T15:32:51;10.60;99.90
46490;DHT22;32204;49.160;8.580;2024-01-30T15:35:16;10.60;99.90
46490;DHT22;32204;49.160;8.580;2024-01-30T15:37:42;10.50;99.90
46490;DHT22;32204;49.160;8.580;2024-01-30T15:40:08;10.50;99.90
46490;DHT22;32204;49.160;8.580;2024-01-30T15:42:34;10.50;99.90
46490;DHT22;32204;49.160;8.580;2024-01-30T15:45:00;10.40;99.90